sensor_id;sensor_type;location;lat;lon;timestamp;P1;durP1;ratioP1;P2;durP2;ratioP2
18653;SDS011;9456;47.824;16.228;2023-03-14T00:01:08;6.30;;;1.97;;
18653;SDS011;9456;47.824;16.228;2023-03-14T00:03:38;3.07;;;1.90;;
18653;SDS011;9456;47.824;16.228;2023-03-14T00:06:08;4.83;;;1.97;;
18653;SDS011;9456;47.824;16.228;2023-03-14T00:08:37;1.97;;;1.63;;
18653;SDS011;9456;47.824;16.228;2023-03-14T00:11:08;3.07;;;1.80;;
18653;SDS011;9456;47.824;16.228;2023-03-14T00:13:36;9.47;;;2.37;;
18653;SDS011;9456;47.824;16.228;2023-03-14T00:16:06;4.23;;;2.10;;
18653;SDS011;9456;47.824;16.228;2023-03-14T00:18:35;4.40;;;2.13;;
18653;SDS011;9456;47.824;16.228;2023-03-14T00:21:05;3.47;;;1.77;;
18653;SDS011;9456;47.824;16.228;2023-03-14T00:23:35;5.90;;;2.37;;
18653;SDS011;9456;47.824;16.228;2023-03-14T00:26:04;5.70;;;1.70;;
18653;SDS011;9456;47.824;16.228;2023-03-14T00:28:33;3.43;;;1.87;;
18653;SDS011;9456;47.824;16.228;2023-03-14T00:31:03;6.13;;;1.93;;
18653;SDS011;9456;47.824;16.228;2023-03-14T00:33:32;5.10;;;1.57;;
18653;SDS011;9456;47.824;16.228;2023-03-14T00:36:02;6.30;;;1.80;;
18653;SDS011;9456;47.824;16.228;2023-03-14T00:38:31;4.33;;;1.73;;
18653;SDS011;9456;47.824;16.228;2023-03-14T00:41:01;2.63;;;1.80;;
18653;SDS011;9456;47.824;16.228;2023-03-14T00:43:31;4.97;;;1.80;;
18653;SDS011;9456;47.824;16.228;2023-03-14T00:46:00;4.47;;;1.70;;
18653;SDS011;9456;47.824;16.228;2023-03-14T00:48:29;4.00;;;1.80;;
18653;SDS011;9456;47.824;16.228;2023-03-14T00:50:58;2.47;;;1.80;;
18653;SDS011;9456;47.824;16.228;2023-03-14T00:53:27;3.23;;;1.67;;
18653;SDS011;9456;47.824;16.228;2023-03-14T00:55:57;5.07;;;1.80;;
18653;SDS011;9456;47.824;16.228;2023-03-14T00:58:26;6.07;;;2.03;;
18653;SDS011;9456;47.824;16.228;2023-03-14T01:00:54;5.03;;;1.90;;
18653;SDS011;9456;47.824;16.228;2023-03-14T01:03:23;4.63;;;1.93;;
18653;SDS011;9456;47.824;16.228;2023-03-14T01:05:52;4.60;;;1.80;;
18653;SDS011;9456;47.824;16.228;2023-03-14T01:08:21;3.93;;;1.90;;
18653;SDS011;9456;47.824;16.228;2023-03-14T01:10:50;5.60;;;1.97;;
18653;SDS011;9456;47.824;16.228;2023-03-14T01:13:19;3.10;;;1.90;;
18653;SDS011;9456;47.824;16.228;2023-03-14T01:15:48;1.77;;;1.57;;
18653;SDS011;9456;47.824;16.228;2023-03-14T01:18:18;4.00;;;1.70;;
18653;SDS011;9456;47.824;16.228;2023-03-14T01:20:47;4.57;;;1.90;;
18653;SDS011;9456;47.824;16.228;2023-03-14T01:23:19;4.77;;;2.00;;
18653;SDS011;9456;47.824;16.228;2023-03-14T01:25:48;3.83;;;1.73;;
18653;SDS011;9456;47.824;16.228;2023-03-14T01:28:17;4.23;;;1.70;;
18653;SDS011;9456;47.824;16.228;2023-03-14T01:30:46;4.33;;;1.90;;
18653;SDS011;9456;47.824;16.228;2023-03-14T01:33:15;6.67;;;2.13;;
18653;SDS011;9456;47.824;16.228;2023-03-14T01:35:44;6.53;;;1.90;;
18653;SDS011;9456;47.824;16.228;2023-03-14T01:38:14;7.83;;;2.10;;
18653;SDS011;9456;47.824;16.228;2023-03-14T01:40:43;3.70;;;1.90;;
18653;SDS011;9456;47.824;16.228;2023-03-14T01:43:16;4.83;;;2.07;;
18653;SDS011;9456;47.824;16.228;2023-03-14T01:46:06;5.30;;;1.90;;
18653;SDS011;9456;47.824;16.228;2023-03-14T01:48:50;4.03;;;1.97;;
18653;SDS011;9456;47.824;16.228;2023-03-14T01:51:24;4.47;;;1.80;;
18653;SDS011;9456;47.824;16.228;2023-03-14T01:53:54;4.17;;;1.80;;
18653;SDS011;9456;47.824;16.228;2023-03-14T01:56:22;3.47;;;2.00;;
18653;SDS011;9456;47.824;16.228;2023-03-14T01:58:51;4.60;;;2.07;;
18653;SDS011;9456;47.824;16.228;2023-03-14T02:01:21;7.07;;;1.90;;
18653;SDS011;9456;47.824;16.228;2023-03-14T02:03:52;4.20;;;2.03;;
18653;SDS011;9456;47.824;16.228;2023-03-14T02:06:21;4.17;;;2.00;;
18653;SDS011;9456;47.824;16.228;2023-03-14T02:08:49;5.37;;;2.00;;
18653;SDS011;9456;47.824;16.228;2023-03-14T02:11:18;4.50;;;3.67;;
18653;SDS011;9456;47.824;16.228;2023-03-14T02:13:47;5.27;;;3.33;;
18653;SDS011;9456;47.824;16.228;2023-03-14T02:16:16;3.43;;;2.70;;
18653;SDS011;9456;47.824;16.228;2023-03-14T02:18:46;6.40;;;3.00;;
18653;SDS011;9456;47.824;16.228;2023-03-14T02:21:16;4.57;;;3.00;;
18653;SDS011;9456;47.824;16.228;2023-03-14T02:23:46;4.40;;;3.17;;
18653;SDS011;9456;47.824;16.228;2023-03-14T02:26:16;4.63;;;3.10;;
18653;SDS011;9456;47.824;16.228;2023-03-14T02:28:45;5.80;;;3.40;;
18653;SDS011;9456;47.824;16.228;2023-03-14T02:31:15;6.30;;;3.30;;
18653;SDS011;9456;47.824;16.228;2023-03-14T02:33:43;3.57;;;2.40;;
18653;SDS011;9456;47.824;16.228;2023-03-14T02:36:12;4.47;;;2.30;;
18653;SDS011;9456;47.824;16.228;2023-03-14T02:38:41;3.53;;;2.20;;
18653;SDS011;9456;47.824;16.228;2023-03-14T02:41:10;4.30;;;1.90;;
18653;SDS011;9456;47.824;16.228;2023-03-14T02:43:39;4.37;;;2.17;;
18653;SDS011;9456;47.824;16.228;2023-03-14T02:46:08;2.23;;;1.77;;
18653;SDS011;9456;47.824;16.228;2023-03-14T02:48:38;4.20;;;2.07;;
18653;SDS011;9456;47.824;16.228;2023-03-14T02:51:06;5.30;;;2.00;;
18653;SDS011;9456;47.824;16.228;2023-03-14T02:53:35;3.20;;;1.73;;
18653;SDS011;9456;47.824;16.228;2023-03-14T02:56:05;3.63;;;2.63;;
18653;SDS011;9456;47.824;16.228;2023-03-14T02:58:35;4.00;;;2.53;;
18653;SDS011;9456;47.824;16.228;2023-03-14T03:01:04;4.60;;;2.60;;
18653;SDS011;9456;47.824;16.228;2023-03-14T03:03:33;3.07;;;2.50;;
18653;SDS011;9456;47.824;16.228;2023-03-14T03:06:02;7.23;;;3.07;;
18653;SDS011;9456;47.824;16.228;2023-03-14T03:08:32;5.30;;;2.80;;
18653;SDS011;9456;47.824;16.228;2023-03-14T03:11:02;6.27;;;2.87;;
18653;SDS011;9456;47.824;16.228;2023-03-14T03:13:31;3.67;;;2.90;;
18653;SDS011;9456;47.824;16.228;2023-03-14T03:16:02;4.50;;;3.33;;
18653;SDS011;9456;47.824;16.228;2023-03-14T03:18:32;5.80;;;3.37;;
18653;SDS011;9456;47.824;16.228;2023-03-14T03:21:01;7.53;;;3.40;;
18653;SDS011;9456;47.824;16.228;2023-03-14T03:23:30;7.03;;;3.77;;
18653;SDS011;9456;47.824;16.228;2023-03-14T03:25:58;4.40;;;3.30;;
18653;SDS011;9456;47.824;16.228;2023-03-14T03:28:28;3.67;;;3.07;;
18653;SDS011;9456;47.824;16.228;2023-03-14T03:30:57;5.57;;;3.30;;
18653;SDS011;9456;47.824;16.228;2023-03-14T03:33:26;4.70;;;2.93;;
18653;SDS011;9456;47.824;16.228;2023-03-14T03:35:55;7.93;;;3.77;;
18653;SDS011;9456;47.824;16.228;2023-03-14T03:38:24;4.93;;;3.57;;
18653;SDS011;9456;47.824;16.228;2023-03-14T03:40:53;4.93;;;3.60;;
18653;SDS011;9456;47.824;16.228;2023-03-14T03:43:22;5.53;;;3.67;;
18653;SDS011;9456;47.824;16.228;2023-03-14T03:45:51;4.87;;;3.07;;
18653;SDS011;9456;47.824;16.228;2023-03-14T03:48:20;5.50;;;3.97;;
18653;SDS011;9456;47.824;16.228;2023-03-14T03:50:49;9.83;;;4.67;;
18653;SDS011;9456;47.824;16.228;2023-03-14T03:53:18;7.87;;;4.60;;
18653;SDS011;9456;47.824;16.228;2023-03-14T03:55:47;5.37;;;3.80;;
18653;SDS011;9456;47.824;16.228;2023-03-14T03:58:16;7.10;;;3.60;;
18653;SDS011;9456;47.824;16.228;2023-03-14T04:00:46;11.27;;;4.00;;
18653;SDS011;9456;47.824;16.228;2023-03-14T04:03:15;5.97;;;3.50;;
18653;SDS011;9456;47.824;16.228;2023-03-14T04:05:44;7.17;;;3.87;;
18653;SDS011;9456;47.824;16.228;2023-03-14T04:08:13;7.07;;;3.77;;
18653;SDS011;9456;47.824;16.228;2023-03-14T04:10:42;6.37;;;3.70;;
18653;SDS011;9456;47.824;16.228;2023-03-14T04:13:11;5.00;;;3.50;;
18653;SDS011;9456;47.824;16.228;2023-03-14T04:15:40;7.40;;;3.77;;
18653;SDS011;9456;47.824;16.228;2023-03-14T04:18:09;5.53;;;3.50;;
18653;SDS011;9456;47.824;16.228;2023-03-14T04:20:38;5.87;;;3.73;;
18653;SDS011;9456;47.824;16.228;2023-03-14T04:23:07;5.60;;;3.20;;
18653;SDS011;9456;47.824;16.228;2023-03-14T04:25:36;7.37;;;3.67;;
18653;SDS011;9456;47.824;16.228;2023-03-14T04:28:04;8.13;;;4.13;;
18653;SDS011;9456;47.824;16.228;2023-03-14T04:30:35;8.90;;;4.60;;
18653;SDS011;9456;47.824;16.228;2023-03-14T04:33:04;10.83;;;5.27;;
18653;SDS011;9456;47.824;16.228;2023-03-14T04:35:33;8.20;;;3.97;;
18653;SDS011;9456;47.824;16.228;2023-03-14T04:38:03;9.17;;;4.97;;
18653;SDS011;9456;47.824;16.228;2023-03-14T04:40:33;8.20;;;4.40;;
18653;SDS011;9456;47.824;16.228;2023-03-14T04:43:02;7.80;;;4.10;;
18653;SDS011;9456;47.824;16.228;2023-03-14T04:45:31;9.90;;;4.57;;
18653;SDS011;9456;47.824;16.228;2023-03-14T04:48:00;5.87;;;4.43;;
18653;SDS011;9456;47.824;16.228;2023-03-14T04:50:29;8.27;;;4.77;;
18653;SDS011;9456;47.824;16.228;2023-03-14T04:52:58;7.47;;;4.83;;
18653;SDS011;9456;47.824;16.228;2023-03-14T04:55:27;8.87;;;4.83;;
18653;SDS011;9456;47.824;16.228;2023-03-14T04:57:56;11.30;;;4.63;;
18653;SDS011;9456;47.824;16.228;2023-03-14T05:00:25;10.97;;;4.97;;
18653;SDS011;9456;47.824;16.228;2023-03-14T05:02:54;13.47;;;4.73;;
18653;SDS011;9456;47.824;16.228;2023-03-14T05:05:23;12.90;;;7.53;;
18653;SDS011;9456;47.824;16.228;2023-03-14T05:07:52;19.00;;;6.90;;
18653;SDS011;9456;47.824;16.228;2023-03-14T05:10:21;13.77;;;7.93;;
18653;SDS011;9456;47.824;16.228;2023-03-14T05:12:50;20.93;;;14.27;;
18653;SDS011;9456;47.824;16.228;2023-03-14T05:15:19;44.43;;;31.07;;
18653;SDS011;9456;47.824;16.228;2023-03-14T05:17:48;18.77;;;10.97;;
18653;SDS011;9456;47.824;16.228;2023-03-14T05:20:18;15.67;;;8.37;;
18653;SDS011;9456;47.824;16.228;2023-03-14T05:22:47;15.10;;;7.73;;
18653;SDS011;9456;47.824;16.228;2023-03-14T05:25:16;12.20;;;7.00;;
18653;SDS011;9456;47.824;16.228;2023-03-14T05:27:45;9.60;;;6.73;;
18653;SDS011;9456;47.824;16.228;2023-03-14T05:30:14;14.93;;;6.17;;
18653;SDS011;9456;47.824;16.228;2023-03-14T05:32:43;13.13;;;6.53;;
18653;SDS011;9456;47.824;16.228;2023-03-14T05:35:12;15.70;;;5.37;;
18653;SDS011;9456;47.824;16.228;2023-03-14T05:37:41;10.83;;;5.93;;
18653;SDS011;9456;47.824;16.228;2023-03-14T05:40:11;14.70;;;6.83;;
18653;SDS011;9456;47.824;16.228;2023-03-14T05:42:41;12.30;;;7.50;;
18653;SDS011;9456;47.824;16.228;2023-03-14T05:45:10;11.47;;;8.07;;
18653;SDS011;9456;47.824;16.228;2023-03-14T05:47:39;10.53;;;7.03;;
18653;SDS011;9456;47.824;16.228;2023-03-14T05:50:09;9.93;;;6.10;;
18653;SDS011;9456;47.824;16.228;2023-03-14T05:52:38;22.20;;;11.63;;
18653;SDS011;9456;47.824;16.228;2023-03-14T05:55:08;22.57;;;12.77;;
18653;SDS011;9456;47.824;16.228;2023-03-14T05:57:37;31.13;;;15.00;;
18653;SDS011;9456;47.824;16.228;2023-03-14T06:00:07;16.30;;;8.43;;
18653;SDS011;9456;47.824;16.228;2023-03-14T06:02:38;17.53;;;9.70;;
18653;SDS011;9456;47.824;16.228;2023-03-14T06:05:08;22.07;;;11.03;;
18653;SDS011;9456;47.824;16.228;2023-03-14T06:07:37;19.63;;;12.70;;
18653;SDS011;9456;47.824;16.228;2023-03-14T06:10:06;18.33;;;9.13;;
18653;SDS011;9456;47.824;16.228;2023-03-14T06:12:35;19.80;;;6.97;;
18653;SDS011;9456;47.824;16.228;2023-03-14T06:15:05;17.83;;;7.70;;
18653;SDS011;9456;47.824;16.228;2023-03-14T06:17:36;23.70;;;8.00;;
18653;SDS011;9456;47.824;16.228;2023-03-14T06:20:08;11.77;;;6.33;;
18653;SDS011;9456;47.824;16.228;2023-03-14T06:22:38;16.07;;;6.30;;
18653;SDS011;9456;47.824;16.228;2023-03-14T06:25:09;12.23;;;6.80;;
18653;SDS011;9456;47.824;16.228;2023-03-14T06:27:38;14.33;;;6.77;;
18653;SDS011;9456;47.824;16.228;2023-03-14T06:30:08;27.40;;;8.67;;
18653;SDS011;9456;47.824;16.228;2023-03-14T06:32:38;32.77;;;18.20;;
18653;SDS011;9456;47.824;16.228;2023-03-14T06:35:15;43.63;;;19.43;;
18653;SDS011;9456;47.824;16.228;2023-03-14T06:37:44;23.63;;;13.07;;
18653;SDS011;9456;47.824;16.228;2023-03-14T06:40:13;25.43;;;12.37;;
18653;SDS011;9456;47.824;16.228;2023-03-14T06:42:43;21.60;;;11.63;;
18653;SDS011;9456;47.824;16.228;2023-03-14T06:45:13;24.30;;;10.43;;
18653;SDS011;9456;47.824;16.228;2023-03-14T06:47:42;19.80;;;7.80;;
18653;SDS011;9456;47.824;16.228;2023-03-14T06:50:11;20.53;;;7.10;;
18653;SDS011;9456;47.824;16.228;2023-03-14T06:52:40;16.77;;;6.67;;
18653;SDS011;9456;47.824;16.228;2023-03-14T06:55:09;10.77;;;6.40;;
18653;SDS011;9456;47.824;16.228;2023-03-14T06:57:38;13.13;;;6.77;;
18653;SDS011;9456;47.824;16.228;2023-03-14T07:00:10;13.43;;;7.37;;
18653;SDS011;9456;47.824;16.228;2023-03-14T07:02:39;11.27;;;7.37;;
18653;SDS011;9456;47.824;16.228;2023-03-14T07:05:08;9.63;;;6.43;;
18653;SDS011;9456;47.824;16.228;2023-03-14T07:07:38;9.63;;;6.23;;
18653;SDS011;9456;47.824;16.228;2023-03-14T07:10:08;9.03;;;6.03;;
18653;SDS011;9456;47.824;16.228;2023-03-14T07:12:38;8.23;;;5.27;;
18653;SDS011;9456;47.824;16.228;2023-03-14T07:15:08;9.07;;;5.57;;
18653;SDS011;9456;47.824;16.228;2023-03-14T07:17:37;11.20;;;6.03;;
18653;SDS011;9456;47.824;16.228;2023-03-14T07:20:07;11.57;;;6.20;;
18653;SDS011;9456;47.824;16.228;2023-03-14T07:22:40;8.30;;;6.23;;
18653;SDS011;9456;47.824;16.228;2023-03-14T07:25:10;7.20;;;6.03;;
18653;SDS011;9456;47.824;16.228;2023-03-14T07:27:40;14.53;;;6.27;;
18653;SDS011;9456;47.824;16.228;2023-03-14T07:30:09;14.80;;;5.60;;
18653;SDS011;9456;47.824;16.228;2023-03-14T07:32:39;10.90;;;6.33;;
18653;SDS011;9456;47.824;16.228;2023-03-14T07:35:08;10.30;;;6.03;;
18653;SDS011;9456;47.824;16.228;2023-03-14T07:37:39;9.90;;;6.57;;
18653;SDS011;9456;47.824;16.228;2023-03-14T07:40:09;9.93;;;6.33;;
18653;SDS011;9456;47.824;16.228;2023-03-14T07:42:39;11.53;;;6.40;;
18653;SDS011;9456;47.824;16.228;2023-03-14T07:45:08;9.10;;;5.93;;
18653;SDS011;9456;47.824;16.228;2023-03-14T07:47:37;9.97;;;6.13;;
18653;SDS011;9456;47.824;16.228;2023-03-14T07:50:07;11.10;;;7.83;;
18653;SDS011;9456;47.824;16.228;2023-03-14T07:52:38;9.30;;;7.20;;
18653;SDS011;9456;47.824;16.228;2023-03-14T07:55:07;13.23;;;7.57;;
18653;SDS011;9456;47.824;16.228;2023-03-14T07:57:36;10.43;;;7.33;;
18653;SDS011;9456;47.824;16.228;2023-03-14T08:00:07;12.23;;;7.07;;
18653;SDS011;9456;47.824;16.228;2023-03-14T08:02:39;11.77;;;7.30;;
18653;SDS011;9456;47.824;16.228;2023-03-14T08:05:09;16.20;;;11.50;;
18653;SDS011;9456;47.824;16.228;2023-03-14T08:07:38;20.03;;;11.67;;
18653;SDS011;9456;47.824;16.228;2023-03-14T08:10:08;23.93;;;12.30;;
18653;SDS011;9456;47.824;16.228;2023-03-14T08:12:38;23.87;;;13.90;;
18653;SDS011;9456;47.824;16.228;2023-03-14T08:15:08;21.73;;;10.47;;
18653;SDS011;9456;47.824;16.228;2023-03-14T08:17:37;33.40;;;9.77;;
18653;SDS011;9456;47.824;16.228;2023-03-14T08:20:07;29.03;;;9.80;;
18653;SDS011;9456;47.824;16.228;2023-03-14T08:22:38;30.33;;;9.13;;
18653;SDS011;9456;47.824;16.228;2023-03-14T08:25:07;24.03;;;8.20;;
18653;SDS011;9456;47.824;16.228;2023-03-14T08:27:36;21.63;;;7.10;;
18653;SDS011;9456;47.824;16.228;2023-03-14T08:30:07;23.33;;;7.80;;
18653;SDS011;9456;47.824;16.228;2023-03-14T08:32:36;24.17;;;8.70;;
18653;SDS011;9456;47.824;16.228;2023-03-14T08:35:05;16.20;;;8.40;;
18653;SDS011;9456;47.824;16.228;2023-03-14T08:37:35;25.43;;;8.87;;
18653;SDS011;9456;47.824;16.228;2023-03-14T08:40:09;24.03;;;8.63;;
18653;SDS011;9456;47.824;16.228;2023-03-14T08:42:39;26.43;;;10.27;;
18653;SDS011;9456;47.824;16.228;2023-03-14T08:45:08;29.03;;;10.77;;
18653;SDS011;9456;47.824;16.228;2023-03-14T08:47:37;20.90;;;8.80;;
18653;SDS011;9456;47.824;16.228;2023-03-14T08:50:07;28.00;;;9.77;;
18653;SDS011;9456;47.824;16.228;2023-03-14T08:52:37;23.20;;;8.57;;
18653;SDS011;9456;47.824;16.228;2023-03-14T08:55:09;21.03;;;9.00;;
18653;SDS011;9456;47.824;16.228;2023-03-14T08:57:38;16.37;;;6.73;;
18653;SDS011;9456;47.824;16.228;2023-03-14T09:00:08;15.73;;;6.27;;
18653;SDS011;9456;47.824;16.228;2023-03-14T09:02:38;15.37;;;6.17;;
18653;SDS011;9456;47.824;16.228;2023-03-14T09:05:09;21.10;;;7.30;;
18653;SDS011;9456;47.824;16.228;2023-03-14T09:07:38;19.17;;;7.80;;
18653;SDS011;9456;47.824;16.228;2023-03-14T09:10:08;14.80;;;6.70;;
18653;SDS011;9456;47.824;16.228;2023-03-14T09:12:38;15.30;;;6.50;;
18653;SDS011;9456;47.824;16.228;2023-03-14T09:15:09;13.23;;;6.10;;
18653;SDS011;9456;47.824;16.228;2023-03-14T09:17:38;16.03;;;6.20;;
18653;SDS011;9456;47.824;16.228;2023-03-14T09:20:09;21.17;;;6.53;;
18653;SDS011;9456;47.824;16.228;2023-03-14T09:22:39;22.20;;;7.10;;
18653;SDS011;9456;47.824;16.228;2023-03-14T09:25:09;16.53;;;6.70;;
18653;SDS011;9456;47.824;16.228;2023-03-14T09:27:38;20.70;;;6.43;;
18653;SDS011;9456;47.824;16.228;2023-03-14T09:30:08;13.00;;;6.53;;
18653;SDS011;9456;47.824;16.228;2023-03-14T09:32:38;17.37;;;6.13;;
18653;SDS011;9456;47.824;16.228;2023-03-14T09:35:08;15.07;;;6.97;;
18653;SDS011;9456;47.824;16.228;2023-03-14T09:37:37;18.03;;;7.00;;
18653;SDS011;9456;47.824;16.228;2023-03-14T09:40:09;21.40;;;6.67;;
18653;SDS011;9456;47.824;16.228;2023-03-14T09:42:45;22.57;;;7.13;;
18653;SDS011;9456;47.824;16.228;2023-03-14T09:45:14;16.30;;;6.53;;
18653;SDS011;9456;47.824;16.228;2023-03-14T09:47:44;22.13;;;6.80;;
18653;SDS011;9456;47.824;16.228;2023-03-14T09:50:14;18.03;;;7.03;;
18653;SDS011;9456;47.824;16.228;2023-03-14T09:52:44;16.57;;;7.13;;
18653;SDS011;9456;47.824;16.228;2023-03-14T09:55:12;21.03;;;7.60;;
18653;SDS011;9456;47.824;16.228;2023-03-14T09:57:41;19.53;;;7.43;;
18653;SDS011;9456;47.824;16.228;2023-03-14T10:00:13;15.03;;;6.80;;
18653;SDS011;9456;47.824;16.228;2023-03-14T10:02:51;21.80;;;7.93;;
18653;SDS011;9456;47.824;16.228;2023-03-14T10:05:15;14.20;;;6.83;;
18653;SDS011;9456;47.824;16.228;2023-03-14T10:07:43;19.83;;;7.27;;
18653;SDS011;9456;47.824;16.228;2023-03-14T10:10:13;25.37;;;7.27;;
18653;SDS011;9456;47.824;16.228;2023-03-14T10:12:44;20.07;;;8.47;;
18653;SDS011;9456;47.824;16.228;2023-03-14T10:15:12;25.87;;;7.33;;
18653;SDS011;9456;47.824;16.228;2023-03-14T10:17:42;21.37;;;7.47;;
18653;SDS011;9456;47.824;16.228;2023-03-14T10:20:25;12.10;;;6.47;;
18653;SDS011;9456;47.824;16.228;2023-03-14T10:23:03;14.07;;;5.60;;
18653;SDS011;9456;47.824;16.228;2023-03-14T10:25:31;13.73;;;5.30;;
18653;SDS011;9456;47.824;16.228;2023-03-14T10:28:02;17.60;;;5.10;;
18653;SDS011;9456;47.824;16.228;2023-03-14T10:30:34;9.23;;;4.97;;
18653;SDS011;9456;47.824;16.228;2023-03-14T10:33:08;10.93;;;4.63;;
18653;SDS011;9456;47.824;16.228;2023-03-14T10:35:37;10.20;;;4.27;;
18653;SDS011;9456;47.824;16.228;2023-03-14T10:38:11;18.47;;;4.37;;
18653;SDS011;9456;47.824;16.228;2023-03-14T10:40:38;20.93;;;5.07;;
18653;SDS011;9456;47.824;16.228;2023-03-14T10:43:13;16.00;;;4.63;;
18653;SDS011;9456;47.824;16.228;2023-03-14T10:45:41;15.80;;;4.90;;
18653;SDS011;9456;47.824;16.228;2023-03-14T10:48:19;19.33;;;4.73;;
18653;SDS011;9456;47.824;16.228;2023-03-14T10:50:54;10.53;;;4.90;;
18653;SDS011;9456;47.824;16.228;2023-03-14T10:53:23;13.20;;;5.47;;
18653;SDS011;9456;47.824;16.228;2023-03-14T10:55:52;13.23;;;4.60;;
18653;SDS011;9456;47.824;16.228;2023-03-14T10:58:22;9.77;;;4.20;;
18653;SDS011;9456;47.824;16.228;2023-03-14T11:00:54;14.80;;;4.53;;
18653;SDS011;9456;47.824;16.228;2023-03-14T11:03:40;6.27;;;3.67;;
18653;SDS011;9456;47.824;16.228;2023-03-14T11:06:10;8.30;;;3.87;;
18653;SDS011;9456;47.824;16.228;2023-03-14T11:08:41;5.27;;;2.87;;
18653;SDS011;9456;47.824;16.228;2023-03-14T11:11:13;8.47;;;3.30;;
18653;SDS011;9456;47.824;16.228;2023-03-14T11:13:44;8.20;;;3.00;;
18653;SDS011;9456;47.824;16.228;2023-03-14T11:16:16;10.43;;;3.67;;
18653;SDS011;9456;47.824;16.228;2023-03-14T11:21:43;10.03;;;3.00;;
18653;SDS011;9456;47.824;16.228;2023-03-14T11:24:25;6.63;;;3.17;;
18653;SDS011;9456;47.824;16.228;2023-03-14T11:26:58;9.50;;;3.27;;
18653;SDS011;9456;47.824;16.228;2023-03-14T11:29:28;7.73;;;3.43;;
18653;SDS011;9456;47.824;16.228;2023-03-14T11:31:57;6.17;;;3.37;;
18653;SDS011;9456;47.824;16.228;2023-03-14T11:34:27;5.50;;;3.63;;
18653;SDS011;9456;47.824;16.228;2023-03-14T11:36:58;5.00;;;3.60;;
18653;SDS011;9456;47.824;16.228;2023-03-14T11:39:26;7.90;;;3.73;;
18653;SDS011;9456;47.824;16.228;2023-03-14T11:41:57;5.33;;;3.33;;
18653;SDS011;9456;47.824;16.228;2023-03-14T11:44:27;4.57;;;3.63;;
18653;SDS011;9456;47.824;16.228;2023-03-14T11:49:38;1.90;;;1.60;;
18653;SDS011;9456;47.824;16.228;2023-03-14T11:52:08;2.27;;;1.33;;
18653;SDS011;9456;47.824;16.228;2023-03-14T11:54:39;1.20;;;1.10;;
18653;SDS011;9456;47.824;16.228;2023-03-14T11:57:10;1.67;;;1.30;;
18653;SDS011;9456;47.824;16.228;2023-03-14T11:59:41;1.80;;;1.70;;
18653;SDS011;9456;47.824;16.228;2023-03-14T12:02:12;3.20;;;1.47;;
18653;SDS011;9456;47.824;16.228;2023-03-14T12:04:46;2.63;;;1.60;;
18653;SDS011;9456;47.824;16.228;2023-03-14T12:07:18;1.17;;;1.07;;
18653;SDS011;9456;47.824;16.228;2023-03-14T12:09:47;1.17;;;1.17;;
18653;SDS011;9456;47.824;16.228;2023-03-14T12:12:18;2.93;;;1.63;;
18653;SDS011;9456;47.824;16.228;2023-03-14T12:14:51;1.93;;;1.83;;
18653;SDS011;9456;47.824;16.228;2023-03-14T12:17:21;1.40;;;1.30;;
18653;SDS011;9456;47.824;16.228;2023-03-14T12:19:49;1.17;;;1.07;;
18653;SDS011;9456;47.824;16.228;2023-03-14T12:22:28;1.87;;;1.77;;
18653;SDS011;9456;47.824;16.228;2023-03-14T12:25:00;2.40;;;1.67;;
18653;SDS011;9456;47.824;16.228;2023-03-14T12:27:40;1.40;;;1.30;;
18653;SDS011;9456;47.824;16.228;2023-03-14T12:30:21;0.80;;;0.80;;
18653;SDS011;9456;47.824;16.228;2023-03-14T12:36:05;0.70;;;0.60;;
18653;SDS011;9456;47.824;16.228;2023-03-14T12:38:45;0.60;;;0.60;;
18653;SDS011;9456;47.824;16.228;2023-03-14T12:41:19;1.30;;;1.10;;
18653;SDS011;9456;47.824;16.228;2023-03-14T12:43:48;0.60;;;0.60;;
18653;SDS011;9456;47.824;16.228;2023-03-14T12:46:21;0.50;;;0.50;;
18653;SDS011;9456;47.824;16.228;2023-03-14T12:57:04;1.90;;;1.67;;
18653;SDS011;9456;47.824;16.228;2023-03-14T12:59:35;1.90;;;1.60;;
18653;SDS011;9456;47.824;16.228;2023-03-14T13:02:17;1.80;;;0.67;;
18653;SDS011;9456;47.824;16.228;2023-03-14T13:04:48;1.47;;;1.20;;
18653;SDS011;9456;47.824;16.228;2023-03-14T13:07:30;0.30;;;0.30;;
18653;SDS011;9456;47.824;16.228;2023-03-14T13:10:17;1.70;;;1.17;;
18653;SDS011;9456;47.824;16.228;2023-03-14T13:12:49;1.40;;;0.73;;
18653;SDS011;9456;47.824;16.228;2023-03-14T13:15:19;4.90;;;1.80;;
18653;SDS011;9456;47.824;16.228;2023-03-14T13:17:52;7.47;;;3.37;;
18653;SDS011;9456;47.824;16.228;2023-03-14T13:20:24;4.10;;;2.23;;
18653;SDS011;9456;47.824;16.228;2023-03-14T13:22:53;2.30;;;1.40;;
18653;SDS011;9456;47.824;16.228;2023-03-14T13:25:22;9.43;;;3.33;;
18653;SDS011;9456;47.824;16.228;2023-03-14T13:27:53;3.23;;;1.73;;
18653;SDS011;9456;47.824;16.228;2023-03-14T13:30:23;2.20;;;1.03;;
18653;SDS011;9456;47.824;16.228;2023-03-14T13:32:52;4.07;;;2.67;;
18653;SDS011;9456;47.824;16.228;2023-03-14T13:35:22;2.70;;;2.10;;
18653;SDS011;9456;47.824;16.228;2023-03-14T13:37:56;6.43;;;4.17;;
18653;SDS011;9456;47.824;16.228;2023-03-14T13:40:25;1.53;;;1.07;;
18653;SDS011;9456;47.824;16.228;2023-03-14T13:43:03;4.20;;;2.90;;
18653;SDS011;9456;47.824;16.228;2023-03-14T13:45:31;6.40;;;4.47;;
18653;SDS011;9456;47.824;16.228;2023-03-14T13:48:09;4.53;;;2.87;;
18653;SDS011;9456;47.824;16.228;2023-03-14T13:50:39;4.47;;;3.17;;
18653;SDS011;9456;47.824;16.228;2023-03-14T13:53:10;9.13;;;6.10;;
18653;SDS011;9456;47.824;16.228;2023-03-14T13:55:40;4.67;;;2.80;;
18653;SDS011;9456;47.824;16.228;2023-03-14T13:58:19;0.77;;;0.77;;
18653;SDS011;9456;47.824;16.228;2023-03-14T14:00:56;0.50;;;0.50;;
18653;SDS011;9456;47.824;16.228;2023-03-14T14:03:25;0.53;;;0.50;;
18653;SDS011;9456;47.824;16.228;2023-03-14T14:05:56;1.73;;;0.77;;
18653;SDS011;9456;47.824;16.228;2023-03-14T14:08:25;0.97;;;0.63;;
18653;SDS011;9456;47.824;16.228;2023-03-14T14:10:55;2.83;;;1.13;;
18653;SDS011;9456;47.824;16.228;2023-03-14T14:13:24;0.77;;;0.77;;
18653;SDS011;9456;47.824;16.228;2023-03-14T14:15:53;4.50;;;0.80;;
18653;SDS011;9456;47.824;16.228;2023-03-14T14:18:23;2.60;;;2.37;;
18653;SDS011;9456;47.824;16.228;2023-03-14T14:20:52;3.60;;;1.27;;
18653;SDS011;9456;47.824;16.228;2023-03-14T14:23:22;2.67;;;1.20;;
18653;SDS011;9456;47.824;16.228;2023-03-14T14:25:52;3.97;;;2.57;;
18653;SDS011;9456;47.824;16.228;2023-03-14T14:28:23;5.40;;;1.17;;
18653;SDS011;9456;47.824;16.228;2023-03-14T14:30:59;1.10;;;1.00;;
18653;SDS011;9456;47.824;16.228;2023-03-14T14:33:30;2.27;;;0.90;;
18653;SDS011;9456;47.824;16.228;2023-03-14T14:36:00;1.30;;;0.77;;
18653;SDS011;9456;47.824;16.228;2023-03-14T14:38:29;1.57;;;1.40;;
18653;SDS011;9456;47.824;16.228;2023-03-14T14:41:00;2.03;;;1.80;;
18653;SDS011;9456;47.824;16.228;2023-03-14T14:43:30;8.20;;;3.17;;
18653;SDS011;9456;47.824;16.228;2023-03-14T14:45:58;6.83;;;2.20;;
18653;SDS011;9456;47.824;16.228;2023-03-14T14:48:27;3.03;;;2.00;;
18653;SDS011;9456;47.824;16.228;2023-03-14T14:50:58;5.30;;;2.37;;
18653;SDS011;9456;47.824;16.228;2023-03-14T14:53:28;3.90;;;2.20;;
18653;SDS011;9456;47.824;16.228;2023-03-14T14:55:58;6.90;;;3.97;;
18653;SDS011;9456;47.824;16.228;2023-03-14T14:58:27;3.93;;;2.83;;
18653;SDS011;9456;47.824;16.228;2023-03-14T15:00:57;2.80;;;2.40;;
18653;SDS011;9456;47.824;16.228;2023-03-14T15:03:27;6.77;;;2.77;;
18653;SDS011;9456;47.824;16.228;2023-03-14T15:05:56;4.97;;;2.87;;
18653;SDS011;9456;47.824;16.228;2023-03-14T15:08:25;3.23;;;2.93;;
18653;SDS011;9456;47.824;16.228;2023-03-14T15:10:55;5.20;;;3.20;;
18653;SDS011;9456;47.824;16.228;2023-03-14T15:13:26;5.90;;;3.03;;
18653;SDS011;9456;47.824;16.228;2023-03-14T15:15:55;5.23;;;2.90;;
18653;SDS011;9456;47.824;16.228;2023-03-14T15:18:25;5.73;;;2.87;;